This is the latest recevied weather packets stored in our database for station/object WY7EM. If no packets are shown the sender has not sent any weather packets the latest 10 day(s).
| Time | Temp. | Humidity | Pressure | Rain* | Wind** | Luminosity | Snow |
|---|---|---|---|---|---|---|---|
| 1778117939 | 22.22° C | 23% | 1014.8 hPa | 0 mm | - | 27 W/m² | - |
| 1778117636 | 22.22° C | 23% | 1014.7 hPa | 0 mm | - | 32 W/m² | - |
| 1778117334 | 22.22° C | 23% | 1014.8 hPa | 0 mm | - | 33 W/m² | - |
| 1778117030 | 22.78° C | 23% | 1014.8 hPa | 0 mm | - | 35 W/m² | - |
| 1778116727 | 23.33° C | 23% | 1014.6 hPa | 0 mm | - | 38 W/m² | - |
| 1778116424 | 23.33° C | 24% | 1014.6 hPa | 0 mm | - | 56 W/m² | - |
| 1778116124 | 22.78° C | 24% | 1014.6 hPa | 0 mm | - | 103 W/m² | - |
| 1778115819 | 23.33° C | 24% | 1014.4 hPa | 0 mm | - | 96 W/m² | - |
| 1778115517 | 23.89° C | 23% | 1014.3 hPa | 0 mm | - | 97 W/m² | - |
| 1778115213 | 23.33° C | 24% | 1014.4 hPa | 0 mm | - | 125 W/m² | - |
| 1778114910 | 23.89° C | 23% | 1014.4 hPa | 0 mm | - | 137 W/m² | - |
| 1778114607 | 23.89° C | 23% | 1014.3 hPa | 0 mm | - | 144 W/m² | - |
| 1778114304 | 23.89° C | 24% | 1014.1 hPa | 0 mm | - | 162 W/m² | - |
| 1778114000 | 23.89° C | 23% | 1014.1 hPa | 0 mm | - | 204 W/m² | - |
| 1778113695 | 23.89° C | 23% | 1014 hPa | 0 mm | - | 241 W/m² | - |
| 1778113391 | 23.89° C | 22% | 1014 hPa | 0 mm | - | 261 W/m² | - |
| 1778113089 | 24.44° C | 23% | 1014 hPa | 0 mm | - | 282 W/m² | - |
| 1778112786 | 24.44° C | 22% | 1014.1 hPa | 0 mm | - | 301 W/m² | - |
| 1778112482 | 24.44° C | 24% | 1013.8 hPa | 0 mm | - | 318 W/m² | - |
| 1778112178 | 24.44° C | 21% | 1013.8 hPa | 0 mm | - | 337 W/m² | - |
| 1778111874 | 24.44° C | 23% | 1013.9 hPa | 0 mm | - | 355 W/m² | - |
| 1778111570 | 24.44° C | 23% | 1013.9 hPa | 0 mm | - | 372 W/m² | - |
| 1778111268 | 24.44° C | 22% | 1013.8 hPa | 0 mm | - | 392 W/m² | - |
| 1778110965 | 25° C | 23% | 1013.9 hPa | 0 mm | - | 405 W/m² | - |
| 1778110663 | 24.44° C | 22% | 1013.7 hPa | 0 mm | - | 421 W/m² | - |
* Rain latest hour (hover to see other rain measurements)
** Current wind speed in m/s (hover to see current wind gust speed)